sensor_id;sensor_type;location;lat;lon;timestamp;temperature;humidity
1602;DHT22;794;48.592;9.634;2022-07-23T00:01:20;20.70;1.00
1602;DHT22;794;48.592;9.634;2022-07-23T00:03:47;20.60;1.00
1602;DHT22;794;48.592;9.634;2022-07-23T00:06:14;20.40;1.00
1602;DHT22;794;48.592;9.634;2022-07-23T00:08:41;20.40;1.00
1602;DHT22;794;48.592;9.634;2022-07-23T00:11:08;20.30;1.00
1602;DHT22;794;48.592;9.634;2022-07-23T00:13:34;20.40;1.00
1602;DHT22;794;48.592;9.634;2022-07-23T00:16:02;20.30;1.00
1602;DHT22;794;48.592;9.634;2022-07-23T00:18:30;20.30;1.00
1602;DHT22;794;48.592;9.634;2022-07-23T00:20:57;20.30;1.00
1602;DHT22;794;48.592;9.634;2022-07-23T00:23:24;20.30;1.00
1602;DHT22;794;48.592;9.634;2022-07-23T00:25:55;20.30;1.00
1602;DHT22;794;48.592;9.634;2022-07-23T00:28:22;20.30;1.00
1602;DHT22;794;48.592;9.634;2022-07-23T00:30:48;20.10;1.00
1602;DHT22;794;48.592;9.634;2022-07-23T00:33:15;19.90;1.00
1602;DHT22;794;48.592;9.634;2022-07-23T00:35:44;19.80;1.00
1602;DHT22;794;48.592;9.634;2022-07-23T00:38:11;19.70;1.00
1602;DHT22;794;48.592;9.634;2022-07-23T00:40:38;19.60;1.00
1602;DHT22;794;48.592;9.634;2022-07-23T00:43:08;19.60;1.00
1602;DHT22;794;48.592;9.634;2022-07-23T00:45:35;19.60;1.00
1602;DHT22;794;48.592;9.634;2022-07-23T00:50:29;19.60;1.00
1602;DHT22;794;48.592;9.634;2022-07-23T00:52:58;19.60;1.00
1602;DHT22;794;48.592;9.634;2022-07-23T00:55:24;19.40;1.00
1602;DHT22;794;48.592;9.634;2022-07-23T00:57:53;19.40;1.00
1602;DHT22;794;48.592;9.634;2022-07-23T01:00:20;19.30;1.00
1602;DHT22;794;48.592;9.634;2022-07-23T01:02:47;19.30;1.00
1602;DHT22;794;48.592;9.634;2022-07-23T01:05:14;19.20;1.00
1602;DHT22;794;48.592;9.634;2022-07-23T01:07:43;19.20;1.00
1602;DHT22;794;48.592;9.634;2022-07-23T01:10:12;19.30;1.00
1602;DHT22;794;48.592;9.634;2022-07-23T01:12:56;19.30;1.00
1602;DHT22;794;48.592;9.634;2022-07-23T01:15:23;19.30;1.00
1602;DHT22;794;48.592;9.634;2022-07-23T01:17:50;19.30;1.00
1602;DHT22;794;48.592;9.634;2022-07-23T01:20:17;19.30;1.00
1602;DHT22;794;48.592;9.634;2022-07-23T01:22:46;19.20;1.00
1602;DHT22;794;48.592;9.634;2022-07-23T01:25:13;19.30;1.00
1602;DHT22;794;48.592;9.634;2022-07-23T01:27:40;19.20;1.00
1602;DHT22;794;48.592;9.634;2022-07-23T01:30:08;19.20;1.00
1602;DHT22;794;48.592;9.634;2022-07-23T01:32:35;19.20;1.00
1602;DHT22;794;48.592;9.634;2022-07-23T01:35:04;19.40;1.00
1602;DHT22;794;48.592;9.634;2022-07-23T01:37:31;19.30;1.00
1602;DHT22;794;48.592;9.634;2022-07-23T01:39:59;19.20;1.00
1602;DHT22;794;48.592;9.634;2022-07-23T01:47:21;19.20;1.00
1602;DHT22;794;48.592;9.634;2022-07-23T01:49:48;19.30;1.00
1602;DHT22;794;48.592;9.634;2022-07-23T01:52:15;19.30;1.00
1602;DHT22;794;48.592;9.634;2022-07-23T01:54:42;19.30;1.00
1602;DHT22;794;48.592;9.634;2022-07-23T01:57:10;19.30;1.00
1602;DHT22;794;48.592;9.634;2022-07-23T01:59:37;19.20;1.00
1602;DHT22;794;48.592;9.634;2022-07-23T02:02:05;19.10;1.00
1602;DHT22;794;48.592;9.634;2022-07-23T02:04:32;19.10;1.00
1602;DHT22;794;48.592;9.634;2022-07-23T02:07:02;19.20;1.00
1602;DHT22;794;48.592;9.634;2022-07-23T02:09:29;19.20;1.00
1602;DHT22;794;48.592;9.634;2022-07-23T02:11:56;19.20;1.00
1602;DHT22;794;48.592;9.634;2022-07-23T02:14:24;19.20;1.00
1602;DHT22;794;48.592;9.634;2022-07-23T02:16:51;19.10;1.00
1602;DHT22;794;48.592;9.634;2022-07-23T02:19:18;19.00;1.00
1602;DHT22;794;48.592;9.634;2022-07-23T02:21:45;18.90;1.00
1602;DHT22;794;48.592;9.634;2022-07-23T02:24:12;18.80;1.00
1602;DHT22;794;48.592;9.634;2022-07-23T02:26:39;18.60;1.00
1602;DHT22;794;48.592;9.634;2022-07-23T02:29:06;18.40;1.00
1602;DHT22;794;48.592;9.634;2022-07-23T02:31:34;18.40;1.00
1602;DHT22;794;48.592;9.634;2022-07-23T02:34:01;18.40;1.00
1602;DHT22;794;48.592;9.634;2022-07-23T02:36:28;18.50;1.00
1602;DHT22;794;48.592;9.634;2022-07-23T02:38:55;18.60;1.00
1602;DHT22;794;48.592;9.634;2022-07-23T02:41:22;18.60;1.00
1602;DHT22;794;48.592;9.634;2022-07-23T02:43:49;18.50;1.00
1602;DHT22;794;48.592;9.634;2022-07-23T02:46:16;18.50;1.00
1602;DHT22;794;48.592;9.634;2022-07-23T02:48:44;18.40;1.00
1602;DHT22;794;48.592;9.634;2022-07-23T02:51:16;18.30;1.00
1602;DHT22;794;48.592;9.634;2022-07-23T02:53:49;18.10;1.00
1602;DHT22;794;48.592;9.634;2022-07-23T02:56:16;18.20;1.00
1602;DHT22;794;48.592;9.634;2022-07-23T02:58:43;18.30;1.00
1602;DHT22;794;48.592;9.634;2022-07-23T03:01:10;18.40;1.00
1602;DHT22;794;48.592;9.634;2022-07-23T03:03:36;18.40;1.00
1602;DHT22;794;48.592;9.634;2022-07-23T03:06:05;18.40;1.00
1602;DHT22;794;48.592;9.634;2022-07-23T03:08:32;18.40;1.00
1602;DHT22;794;48.592;9.634;2022-07-23T03:11:13;18.50;1.00
1602;DHT22;794;48.592;9.634;2022-07-23T03:13:52;18.40;1.00
1602;DHT22;794;48.592;9.634;2022-07-23T03:16:21;17.90;1.00
1602;DHT22;794;48.592;9.634;2022-07-23T03:18:48;18.40;1.00
1602;DHT22;794;48.592;9.634;2022-07-23T03:21:19;18.40;1.00
1602;DHT22;794;48.592;9.634;2022-07-23T03:23:46;18.50;1.00
1602;DHT22;794;48.592;9.634;2022-07-23T03:26:17;18.40;1.00
1602;DHT22;794;48.592;9.634;2022-07-23T03:28:44;18.30;1.00
1602;DHT22;794;48.592;9.634;2022-07-23T03:31:11;18.30;1.00
1602;DHT22;794;48.592;9.634;2022-07-23T03:33:39;18.30;1.00
1602;DHT22;794;48.592;9.634;2022-07-23T03:36:08;18.30;1.00
1602;DHT22;794;48.592;9.634;2022-07-23T03:38:36;18.30;1.00
1602;DHT22;794;48.592;9.634;2022-07-23T03:41:03;18.30;1.00
1602;DHT22;794;48.592;9.634;2022-07-23T03:43:30;18.30;1.00
1602;DHT22;794;48.592;9.634;2022-07-23T03:46:11;18.30;1.00
1602;DHT22;794;48.592;9.634;2022-07-23T03:48:41;18.20;1.00
1602;DHT22;794;48.592;9.634;2022-07-23T03:51:15;18.20;1.00
1602;DHT22;794;48.592;9.634;2022-07-23T03:53:48;18.10;1.00
1602;DHT22;794;48.592;9.634;2022-07-23T03:56:35;18.10;1.00
1602;DHT22;794;48.592;9.634;2022-07-23T03:59:11;18.10;1.00
1602;DHT22;794;48.592;9.634;2022-07-23T04:01:38;18.00;1.00
1602;DHT22;794;48.592;9.634;2022-07-23T04:06:35;18.00;1.00
1602;DHT22;794;48.592;9.634;2022-07-23T04:09:10;18.00;1.00
1602;DHT22;794;48.592;9.634;2022-07-23T04:11:38;18.10;1.00
1602;DHT22;794;48.592;9.634;2022-07-23T04:14:07;17.20;1.00
1602;DHT22;794;48.592;9.634;2022-07-23T04:19:06;18.00;1.00
1602;DHT22;794;48.592;9.634;2022-07-23T04:21:41;17.60;1.00
1602;DHT22;794;48.592;9.634;2022-07-23T04:27:14;18.00;1.00
1602;DHT22;794;48.592;9.634;2022-07-23T04:29:43;18.00;1.00
1602;DHT22;794;48.592;9.634;2022-07-23T04:32:11;17.50;1.00
1602;DHT22;794;48.592;9.634;2022-07-23T04:34:39;17.80;1.00
1602;DHT22;794;48.592;9.634;2022-07-23T04:37:10;17.90;1.00
1602;DHT22;794;48.592;9.634;2022-07-23T04:40:12;18.00;1.00
1602;DHT22;794;48.592;9.634;2022-07-23T04:42:40;18.20;1.00
1602;DHT22;794;48.592;9.634;2022-07-23T04:45:08;18.30;1.00
1602;DHT22;794;48.592;9.634;2022-07-23T04:50:09;18.50;1.00
1602;DHT22;794;48.592;9.634;2022-07-23T04:53:09;18.70;1.00
1602;DHT22;794;48.592;9.634;2022-07-23T04:56:00;19.60;1.00
1602;DHT22;794;48.592;9.634;2022-07-23T04:58:35;20.10;1.00
